createdAt,value
2022-11-14T00:04:01.698Z,54.00
2022-11-14T00:09:03.130Z,53.72
2022-11-14T00:14:04.773Z,48.60
2022-11-14T00:19:06.158Z,50.95
2022-11-14T00:24:07.625Z,48.38
2022-11-14T00:29:11.051Z,50.90
2022-11-14T00:34:12.643Z,51.45
2022-11-14T00:39:14.690Z,52.08
2022-11-14T00:44:16.131Z,51.20
2022-11-14T00:49:17.549Z,51.17
2022-11-14T00:54:18.988Z,48.92
2022-11-14T00:59:20.506Z,46.90
2022-11-14T01:04:22.156Z,48.78
2022-11-14T01:09:23.627Z,52.45
2022-11-14T01:14:25.322Z,48.97
2022-11-14T01:19:26.681Z,53.10
2022-11-14T01:24:28.139Z,46.42
2022-11-14T01:29:29.848Z,46.53
2022-11-14T01:34:31.249Z,49.17
2022-11-14T01:39:32.696Z,57.00
2022-11-14T01:44:53.161Z,54.95
2022-11-14T01:49:56.109Z,54.13
2022-11-14T01:54:58.663Z,51.45
2022-11-14T02:00:03.423Z,60.25
2022-11-14T02:05:07.360Z,58.10
2022-11-14T02:10:11.268Z,61.75
2022-11-14T02:15:12.870Z,60.63
2022-11-14T02:20:14.223Z,57.67
2022-11-14T02:25:17.453Z,63.80
2022-11-14T02:30:20.432Z,67.55
2022-11-14T02:35:21.852Z,59.45
2022-11-14T02:40:23.349Z,59.20
2022-11-14T02:45:24.819Z,57.75
2022-11-14T02:50:26.314Z,68.90
2022-11-14T02:55:27.888Z,61.78
2022-11-14T03:00:29.342Z,58.80
2022-11-14T03:05:30.883Z,74.07
2022-11-14T03:10:32.260Z,65.57
2022-11-14T03:15:36.788Z,65.80
2022-11-14T03:20:38.228Z,70.85
2022-11-14T03:25:39.646Z,69.85
2022-11-14T03:30:41.068Z,77.60
2022-11-14T03:35:43.880Z,70.45
2022-11-14T03:40:45.561Z,73.15
2022-11-14T03:45:47.415Z,70.80
2022-11-14T03:50:48.758Z,75.90
2022-11-14T03:55:51.673Z,77.57
2022-11-14T04:00:55.784Z,78.32
2022-11-14T04:05:57.231Z,74.32
2022-11-14T04:10:58.653Z,76.45
2022-11-14T04:16:00.129Z,75.30
2022-11-14T04:21:01.719Z,75.07
2022-11-14T04:26:03.128Z,73.28
2022-11-14T04:31:04.753Z,79.53
2022-11-14T04:36:06.352Z,76.47
2022-11-14T04:41:07.864Z,75.80
2022-11-14T04:46:09.314Z,80.38
2022-11-14T04:51:11.006Z,74.22
2022-11-14T04:56:13.243Z,73.43
2022-11-14T05:01:16.535Z,67.30
2022-11-14T05:06:17.993Z,72.95
2022-11-14T05:11:20.862Z,70.93
2022-11-14T05:16:23.932Z,68.35
2022-11-14T05:21:25.343Z,72.00
2022-11-14T05:26:26.765Z,70.55
2022-11-14T05:31:28.218Z,68.30
2022-11-14T05:36:29.580Z,69.28
2022-11-14T05:41:31.033Z,67.57
2022-11-14T05:46:32.749Z,70.18
2022-11-14T05:51:34.332Z,79.25
2022-11-14T05:56:35.770Z,69.07
2022-11-14T06:01:37.186Z,69.35
2022-11-14T06:06:38.619Z,73.43
2022-11-14T06:11:40.308Z,69.47
2022-11-14T06:16:41.873Z,65.85
2022-11-14T06:21:43.295Z,65.68
2022-11-14T06:26:44.764Z,65.78
2022-11-14T06:31:46.127Z,65.28
2022-11-14T06:36:49.759Z,63.47
2022-11-14T06:41:51.201Z,65.47
2022-11-14T06:46:52.677Z,59.35
2022-11-14T06:51:54.537Z,61.38
2022-11-14T06:56:55.926Z,67.28
2022-11-14T07:01:57.363Z,58.65
2022-11-14T07:06:58.803Z,60.15
2022-11-14T07:12:00.252Z,62.60
2022-11-14T07:17:01.692Z,65.05
2022-11-14T07:22:03.159Z,63.55
2022-11-14T07:27:09.054Z,61.88
2022-11-14T07:32:10.420Z,58.20
2022-11-14T07:37:11.808Z,64.75
2022-11-14T07:42:13.342Z,58.40
2022-11-14T07:47:14.975Z,62.90
2022-11-14T07:52:18.333Z,63.50
2022-11-14T07:57:19.833Z,59.50
2022-11-14T08:02:21.349Z,59.65
2022-11-14T08:07:22.880Z,62.58
2022-11-14T08:12:24.392Z,56.38
2022-11-14T08:17:25.830Z,54.17
2022-11-14T08:22:27.604Z,57.00
2022-11-14T08:27:29.077Z,56.47
2022-11-14T08:32:31.382Z,55.75
2022-11-14T08:37:32.822Z,58.35
2022-11-14T08:42:34.458Z,56.75
2022-11-14T08:47:35.903Z,58.20
2022-11-14T08:52:37.419Z,53.83
2022-11-14T08:57:38.907Z,56.70
2022-11-14T09:02:41.170Z,53.42
2022-11-14T09:07:42.636Z,54.00
2022-11-14T09:12:44.061Z,56.67
2022-11-14T09:17:45.693Z,55.75
2022-11-14T09:22:47.085Z,52.85
2022-11-14T09:27:48.508Z,54.03
2022-11-14T09:32:50.042Z,52.63
2022-11-14T09:38:03.052Z,55.40
2022-11-14T09:43:16.439Z,53.10
2022-11-14T09:48:22.578Z,55.13
2022-11-14T09:53:44.616Z,49.20
2022-11-14T09:58:46.242Z,48.20
2022-11-14T10:03:53.266Z,55.10
2022-11-14T10:09:11.759Z,52.70
2022-11-14T10:14:19.035Z,47.50
2022-11-14T10:19:20.501Z,47.72
2022-11-14T10:24:37.003Z,50.88
2022-11-14T10:29:51.905Z,48.28
2022-11-14T10:35:11.843Z,50.05
2022-11-14T10:40:16.308Z,49.80
2022-11-14T10:45:38.339Z,46.90
2022-11-14T10:50:39.725Z,44.88
2022-11-14T10:56:03.227Z,44.30
2022-11-14T11:01:21.406Z,49.05
2022-11-14T11:06:41.344Z,47.60
2022-11-14T11:11:51.965Z,42.97
2022-11-14T11:17:35.883Z,49.92
2022-11-14T11:22:40.252Z,44.22
2022-11-14T11:27:41.670Z,43.70
2022-11-14T11:32:43.147Z,39.80
2022-11-14T11:37:44.551Z,39.88
2022-11-14T11:48:15.189Z,38.72
2022-11-14T11:53:19.315Z,40.10
2022-11-14T11:58:23.656Z,41.42
2022-11-14T12:03:26.181Z,43.65
2022-11-14T12:08:37.347Z,42.13
2022-11-14T12:13:57.374Z,41.80
2022-11-14T12:19:04.658Z,40.25
2022-11-14T12:24:12.292Z,39.50
2022-11-14T12:29:22.555Z,41.10
2022-11-14T12:34:32.309Z,41.92
2022-11-14T12:39:33.762Z,39.28
2022-11-14T12:44:37.638Z,36.42
2022-11-14T12:49:48.228Z,41.10
2022-11-14T12:54:49.702Z,37.10
2022-11-14T12:59:56.820Z,38.80
2022-11-14T13:05:18.788Z,37.17
2022-11-14T13:10:37.079Z,39.88
2022-11-14T13:16:13.834Z,35.72
2022-11-14T13:21:46.192Z,36.53
2022-11-14T13:26:48.150Z,38.28
2022-11-14T13:31:50.005Z,38.83
2022-11-14T13:37:10.151Z,36.50
2022-11-14T13:47:23.082Z,42.20
2022-11-14T13:52:29.996Z,38.72
2022-11-14T13:57:42.278Z,37.70
2022-11-14T14:02:51.927Z,35.80
2022-11-14T14:08:05.469Z,34.63
2022-11-14T14:13:25.567Z,37.92
2022-11-14T14:18:44.327Z,38.80
2022-11-14T14:23:45.650Z,38.97
2022-11-14T14:28:56.286Z,42.20
2022-11-14T14:33:57.732Z,46.97
2022-11-14T14:39:17.934Z,47.28
2022-11-14T14:49:36.564Z,56.35
2022-11-14T14:54:39.070Z,54.03
2022-11-14T14:59:42.214Z,52.45
2022-11-14T15:04:43.688Z,54.83
2022-11-14T15:09:57.826Z,55.28
2022-11-14T15:15:00.066Z,61.35
2022-11-14T15:20:01.519Z,55.13
2022-11-14T15:25:05.682Z,53.50
2022-11-14T15:30:19.460Z,52.95
2022-11-14T15:35:25.330Z,56.13
2022-11-14T15:40:27.909Z,50.15
2022-11-14T15:45:39.079Z,54.40
2022-11-14T15:50:40.689Z,51.75
2022-11-14T15:55:42.153Z,44.78
2022-11-14T16:00:50.874Z,46.88
2022-11-14T16:05:52.270Z,43.50
2022-11-14T16:10:53.687Z,44.40
2022-11-14T16:15:55.099Z,45.80
2022-11-14T16:20:59.344Z,44.40
2022-11-14T16:26:00.730Z,42.97
2022-11-14T16:31:22.289Z,42.88
2022-11-14T16:36:23.700Z,39.42
2022-11-14T16:41:25.658Z,40.92
2022-11-14T16:46:27.094Z,38.50
2022-11-14T16:56:50.041Z,34.45
2022-11-14T17:01:51.729Z,36.33
2022-11-14T17:06:53.293Z,37.75
2022-11-14T17:11:54.770Z,40.70
2022-11-14T17:16:56.163Z,36.50
2022-11-14T17:21:57.587Z,40.15
2022-11-14T17:26:59.031Z,39.05
2022-11-14T17:32:01.091Z,42.08
2022-11-14T17:37:02.681Z,43.72
2022-11-14T17:42:07.369Z,43.70
2022-11-14T17:47:08.783Z,51.22
2022-11-14T17:52:10.249Z,45.17
2022-11-14T17:57:13.323Z,49.17
2022-11-14T18:02:14.825Z,47.40
2022-11-14T18:07:16.400Z,44.58
2022-11-14T18:12:17.862Z,46.17
2022-11-14T18:17:19.302Z,47.88
2022-11-14T18:22:20.720Z,45.17
2022-11-14T18:27:22.100Z,44.95
2022-11-14T18:32:23.495Z,43.63
2022-11-14T18:37:24.981Z,44.55
2022-11-14T18:42:26.441Z,37.42
2022-11-14T18:47:30.967Z,37.53
2022-11-14T18:52:32.347Z,36.30
2022-11-14T18:57:34.021Z,34.22
2022-11-14T19:02:35.448Z,39.08
2022-11-14T19:07:36.954Z,37.28
2022-11-14T19:12:38.461Z,37.05
2022-11-14T19:17:39.928Z,36.45
2022-11-14T19:22:41.439Z,34.63
2022-11-14T19:27:42.907Z,35.22
2022-11-14T19:32:44.268Z,31.58
2022-11-14T19:37:45.654Z,29.05
2022-11-14T19:42:47.035Z,33.08
2022-11-14T19:47:48.447Z,28.75
2022-11-14T19:52:50.926Z,24.40
2022-11-14T19:57:52.306Z,26.35
2022-11-14T20:02:53.684Z,23.58
2022-11-14T20:07:55.149Z,25.52
2022-11-14T20:12:56.522Z,24.83
2022-11-14T20:17:58.071Z,25.55
2022-11-14T20:22:59.499Z,23.95
2022-11-14T20:28:01.592Z,27.88
2022-11-14T20:33:03.183Z,28.08
2022-11-14T20:38:05.007Z,32.83
2022-11-14T20:43:07.271Z,30.70
2022-11-14T20:48:08.667Z,24.08
2022-11-14T20:53:10.047Z,26.70
2022-11-14T20:58:11.470Z,28.00
2022-11-14T21:03:12.837Z,24.48
2022-11-14T21:08:16.905Z,29.13
2022-11-14T21:13:38.631Z,27.45
2022-11-14T21:18:45.206Z,29.30
2022-11-14T21:23:50.654Z,26.85
2022-11-14T21:28:53.659Z,26.35
2022-11-14T21:33:58.726Z,28.60
2022-11-14T21:39:00.122Z,29.13
2022-11-14T21:44:02.429Z,24.98
2022-11-14T21:49:03.827Z,30.02
2022-11-14T21:54:06.485Z,27.92
2022-11-14T21:59:21.449Z,29.92
2022-11-14T22:04:23.210Z,32.35
2022-11-14T22:09:26.064Z,31.98
2022-11-14T22:14:27.452Z,33.88
2022-11-14T22:19:28.882Z,34.47
2022-11-14T22:24:32.368Z,33.90
2022-11-14T22:29:33.718Z,34.08
2022-11-14T22:34:35.074Z,35.45
2022-11-14T22:39:36.465Z,34.63
2022-11-14T22:44:37.954Z,34.50
2022-11-14T22:49:39.333Z,35.22
2022-11-14T22:54:40.726Z,40.75
2022-11-14T22:59:42.137Z,44.20
2022-11-14T23:04:43.956Z,40.53
2022-11-14T23:09:45.356Z,40.20
2022-11-14T23:14:46.791Z,37.97
2022-11-14T23:19:48.134Z,43.55
2022-11-14T23:24:49.511Z,43.75
2022-11-14T23:29:50.886Z,43.05
2022-11-14T23:34:52.260Z,47.45
2022-11-14T23:39:53.858Z,43.97
2022-11-14T23:44:55.250Z,46.40
2022-11-14T23:49:56.839Z,45.55
2022-11-14T23:54:58.291Z,43.78
2022-11-14T23:59:59.662Z,45.08
